createdAt,value
2023-01-03T00:01:23.996Z,102068.63
2023-01-03T00:03:53.444Z,102065.19
2023-01-03T00:06:23.131Z,102060.03
2023-01-03T00:08:51.016Z,102062.88
2023-01-03T00:11:43.142Z,102055.84
2023-01-03T00:14:14.407Z,102055.91
2023-01-03T00:16:43.043Z,102054.63
2023-01-03T00:19:12.647Z,102059.88
2023-01-03T00:21:41.413Z,102056.44
2023-01-03T00:24:10.596Z,102058.13
2023-01-03T00:26:40.351Z,102053.22
2023-01-03T00:29:08.645Z,102053.41
2023-01-03T00:31:38.260Z,102050.19
2023-01-03T00:34:06.903Z,102053.75
2023-01-03T00:36:35.275Z,102049.63
2023-01-03T00:39:03.158Z,102057.53
2023-01-03T00:41:31.023Z,102053.88
2023-01-03T00:43:59.427Z,102049.34
2023-01-03T00:46:27.286Z,102056.19
2023-01-03T00:48:56.531Z,102056.88
2023-01-03T00:51:26.446Z,102068.31
2023-01-03T00:53:57.668Z,102068.56
2023-01-03T00:56:27.406Z,102068.69
2023-01-03T00:58:55.743Z,102063.53
2023-01-03T01:01:25.414Z,102065.31
2023-01-03T01:03:56.034Z,102065.47
2023-01-03T01:06:27.930Z,102071.50
2023-01-03T01:08:57.423Z,102070.19
2023-01-03T01:11:26.516Z,102058.81
2023-01-03T01:13:55.195Z,102069.53
2023-01-03T01:16:25.379Z,102066.91
2023-01-03T01:18:54.580Z,102075.00
2023-01-03T01:21:26.600Z,102069.22
2023-01-03T01:23:54.891Z,102074.50
2023-01-03T01:26:24.679Z,102072.81
2023-01-03T01:28:53.473Z,102066.94
2023-01-03T01:31:24.553Z,102069.78
2023-01-03T01:33:53.406Z,102073.44
2023-01-03T01:36:23.092Z,102069.78
2023-01-03T01:38:56.591Z,102071.84
2023-01-03T01:41:38.426Z,102071.97
2023-01-03T01:44:24.719Z,102067.75
2023-01-03T01:46:53.314Z,102076.72
2023-01-03T01:49:25.430Z,102079.59
2023-01-03T01:51:53.388Z,102083.28
2023-01-03T01:54:22.732Z,102090.53
2023-01-03T01:56:54.340Z,102095.78
2023-01-03T01:59:22.075Z,102103.25
2023-01-03T02:01:52.635Z,102093.19
2023-01-03T02:04:28.091Z,102096.78
2023-01-03T02:06:57.596Z,102089.75
2023-01-03T02:09:26.684Z,102087.88
2023-01-03T02:12:12.745Z,102091.56
2023-01-03T02:15:03.981Z,102088.25
2023-01-03T02:17:42.191Z,102095.41
2023-01-03T02:20:25.843Z,102096.31
2023-01-03T02:23:30.227Z,102104.38
2023-01-03T02:26:25.822Z,102098.28
2023-01-03T02:29:19.455Z,102104.84
2023-01-03T02:31:56.119Z,102110.28
2023-01-03T02:34:33.725Z,102111.25
2023-01-03T02:37:14.432Z,102112.06
2023-01-03T02:39:49.868Z,102115.78
2023-01-03T02:42:43.783Z,102117.38
2023-01-03T02:45:16.338Z,102111.09
2023-01-03T02:47:50.733Z,102113.97
2023-01-03T02:50:22.318Z,102105.16
2023-01-03T02:52:52.179Z,102103.47
2023-01-03T02:55:23.844Z,102092.84
2023-01-03T02:57:57.610Z,102098.34
2023-01-03T03:00:28.782Z,102097.28
2023-01-03T03:03:02.792Z,102098.88
2023-01-03T03:05:37.613Z,102092.56
2023-01-03T03:08:05.743Z,102091.72
2023-01-03T03:10:51.318Z,102097.16
2023-01-03T03:13:25.888Z,102084.63
2023-01-03T03:15:59.211Z,102075.88
2023-01-03T03:18:34.505Z,102084.75
2023-01-03T03:21:21.144Z,102085.94
2023-01-03T03:24:08.026Z,102082.44
2023-01-03T03:26:40.210Z,102089.66
2023-01-03T03:29:13.003Z,102090.72
2023-01-03T03:31:44.350Z,102090.03
2023-01-03T03:34:18.443Z,102093.75
2023-01-03T03:36:52.387Z,102092.94
2023-01-03T03:39:37.727Z,102090.41
2023-01-03T03:42:36.817Z,102096.59
2023-01-03T03:45:13.943Z,102094.59
2023-01-03T03:47:48.847Z,102084.94
2023-01-03T03:50:25.267Z,102090.94
2023-01-03T03:52:57.997Z,102081.16
2023-01-03T03:55:30.687Z,102086.97
2023-01-03T03:58:02.285Z,102086.25
2023-01-03T04:00:33.955Z,102083.53
2023-01-03T04:03:04.625Z,102092.34
2023-01-03T04:05:38.651Z,102091.47
2023-01-03T04:08:07.128Z,102088.84
2023-01-03T04:10:38.007Z,102083.28
2023-01-03T04:13:06.477Z,102092.19
2023-01-03T04:15:34.298Z,102092.09
2023-01-03T04:18:02.546Z,102094.75
2023-01-03T04:20:30.486Z,102085.78
2023-01-03T04:22:59.578Z,102087.72
2023-01-03T04:25:27.490Z,102093.03
2023-01-03T04:27:55.221Z,102094.06
2023-01-03T04:30:22.965Z,102093.78
2023-01-03T04:32:50.716Z,102096.34
2023-01-03T04:35:18.552Z,102101.69
2023-01-03T04:37:46.334Z,102099.94
2023-01-03T04:40:15.660Z,102102.53
2023-01-03T04:43:00.885Z,102099.09
2023-01-03T04:45:28.688Z,102108.09
2023-01-03T04:47:56.509Z,102099.31
2023-01-03T04:50:24.261Z,102106.38
2023-01-03T04:52:52.039Z,102109.88
2023-01-03T04:55:21.129Z,102110.97
2023-01-03T04:57:48.896Z,102099.44
2023-01-03T05:00:18.431Z,102101.28
2023-01-03T05:02:46.127Z,102101.47
2023-01-03T05:05:13.924Z,102101.53
2023-01-03T05:07:41.743Z,102107.75
2023-01-03T05:10:09.916Z,102101.50
2023-01-03T05:12:39.038Z,102105.88
2023-01-03T05:15:07.833Z,102104.19
2023-01-03T05:17:35.548Z,102104.88
2023-01-03T05:20:20.635Z,102103.06
2023-01-03T05:23:06.081Z,102106.50
2023-01-03T05:25:51.995Z,102107.38
2023-01-03T05:28:24.115Z,102119.78
2023-01-03T05:30:51.800Z,102112.66
2023-01-03T05:33:19.523Z,102122.22
2023-01-03T05:35:47.952Z,102116.78
2023-01-03T05:38:16.155Z,102109.75
2023-01-03T05:40:44.076Z,102124.13
2023-01-03T05:43:12.165Z,102114.47
2023-01-03T05:45:41.672Z,102121.56
2023-01-03T05:48:10.266Z,102129.34
2023-01-03T05:50:39.000Z,102126.91
2023-01-03T05:53:06.745Z,102132.94
2023-01-03T05:55:36.586Z,102133.78
2023-01-03T05:58:04.336Z,102130.16
2023-01-03T06:00:32.114Z,102132.66
2023-01-03T06:03:01.413Z,102133.31
2023-01-03T06:05:29.132Z,102142.06
2023-01-03T06:07:56.922Z,102136.88
2023-01-03T06:10:24.679Z,102137.78
2023-01-03T06:12:52.695Z,102141.47
2023-01-03T06:15:20.643Z,102141.44
2023-01-03T06:17:58.035Z,102136.00
2023-01-03T06:20:28.622Z,102137.72
2023-01-03T06:22:56.798Z,102132.28
2023-01-03T06:25:24.766Z,102122.50
2023-01-03T06:27:52.503Z,102120.75
2023-01-03T06:30:20.979Z,102124.28
2023-01-03T06:32:48.910Z,102125.28
2023-01-03T06:35:16.681Z,102113.00
2023-01-03T06:37:45.814Z,102118.03
2023-01-03T06:40:13.721Z,102114.81
2023-01-03T06:42:42.850Z,102111.25
2023-01-03T06:45:30.380Z,102117.38
2023-01-03T06:48:15.765Z,102116.41
2023-01-03T06:51:02.155Z,102115.69
2023-01-03T06:53:35.909Z,102121.69
2023-01-03T06:56:04.185Z,102126.09
2023-01-03T06:58:32.112Z,102123.41
2023-01-03T07:01:02.503Z,102119.84
2023-01-03T07:03:30.622Z,102134.00
2023-01-03T07:05:58.448Z,102123.22
2023-01-03T07:08:26.157Z,102132.25
2023-01-03T07:10:55.397Z,102125.97
2023-01-03T07:13:40.372Z,102125.00
2023-01-03T07:16:14.010Z,102130.53
2023-01-03T07:18:41.831Z,102128.63
2023-01-03T07:21:09.872Z,102137.44
2023-01-03T07:23:37.774Z,102127.69
2023-01-03T07:26:07.124Z,102134.56
2023-01-03T07:28:35.118Z,102131.88
2023-01-03T07:31:05.325Z,102133.13
2023-01-03T07:33:33.369Z,102144.28
2023-01-03T07:36:07.581Z,102153.19
2023-01-03T07:38:40.048Z,102144.50
2023-01-03T07:41:09.703Z,102140.00
2023-01-03T07:43:37.059Z,102144.28
2023-01-03T07:46:10.286Z,102146.88
2023-01-03T07:48:38.808Z,102157.50
2023-01-03T07:51:07.235Z,102160.03
2023-01-03T07:53:35.913Z,102161.63
2023-01-03T07:56:10.765Z,102153.50
2023-01-03T07:58:42.857Z,102158.72
2023-01-03T08:01:12.677Z,102149.72
2023-01-03T08:03:41.476Z,102148.72
2023-01-03T08:06:11.180Z,102138.88
2023-01-03T08:08:39.451Z,102139.94
2023-01-03T08:11:25.380Z,102135.34
2023-01-03T08:13:54.739Z,102132.66
2023-01-03T08:16:22.595Z,102136.25
2023-01-03T08:18:50.499Z,102143.09
2023-01-03T08:21:18.335Z,102142.38
2023-01-03T08:23:48.805Z,102147.44
2023-01-03T08:26:18.900Z,102144.13
2023-01-03T08:28:46.714Z,102154.59
2023-01-03T08:31:19.377Z,102161.41
2023-01-03T08:33:51.590Z,102162.13
2023-01-03T08:36:20.735Z,102161.94
2023-01-03T08:38:51.885Z,102174.59
2023-01-03T08:41:23.235Z,102179.53
2023-01-03T08:43:51.135Z,102177.72
2023-01-03T08:46:21.360Z,102176.00
2023-01-03T08:48:49.486Z,102174.13
2023-01-03T08:51:17.209Z,102177.97
2023-01-03T08:53:44.914Z,102181.31
2023-01-03T08:56:12.752Z,102182.56
2023-01-03T08:58:40.535Z,102193.34
2023-01-03T09:01:09.668Z,102197.22
2023-01-03T09:03:38.950Z,102197.69
2023-01-03T09:06:07.481Z,102194.88
2023-01-03T09:08:36.338Z,102199.56
2023-01-03T09:11:05.885Z,102200.94
2023-01-03T09:13:33.903Z,102200.84
2023-01-03T09:16:02.736Z,102204.47
2023-01-03T09:18:30.644Z,102203.28
2023-01-03T09:20:59.711Z,102212.66
2023-01-03T09:23:27.515Z,102205.44
2023-01-03T09:25:55.405Z,102208.84
2023-01-03T09:28:23.349Z,102213.25
2023-01-03T09:30:51.425Z,102200.00
2023-01-03T09:33:19.436Z,102196.75
2023-01-03T09:35:47.206Z,102198.00
2023-01-03T09:38:16.360Z,102196.91
2023-01-03T09:40:46.676Z,102183.28
2023-01-03T09:43:24.662Z,102190.66
2023-01-03T09:45:56.643Z,102189.13
2023-01-03T09:48:31.425Z,102187.50
2023-01-03T09:51:19.794Z,102188.00
2023-01-03T09:54:06.338Z,102188.19
2023-01-03T09:56:51.635Z,102191.25
2023-01-03T09:59:36.983Z,102192.63
2023-01-03T10:02:44.155Z,102194.38
2023-01-03T10:05:22.383Z,102200.75
2023-01-03T10:08:07.187Z,102204.97
2023-01-03T10:10:42.577Z,102198.16
2023-01-03T10:13:31.263Z,102203.69
2023-01-03T10:16:09.664Z,102210.38
2023-01-03T10:18:54.969Z,102207.63
2023-01-03T10:21:32.481Z,102206.31
2023-01-03T10:24:00.869Z,102196.78
2023-01-03T10:26:34.342Z,102200.59
2023-01-03T10:29:02.148Z,102196.97
2023-01-03T10:31:43.085Z,102196.81
2023-01-03T10:34:12.468Z,102194.50
2023-01-03T10:36:40.151Z,102200.28
2023-01-03T10:39:10.229Z,102188.09
2023-01-03T10:41:43.884Z,102196.81
2023-01-03T10:44:26.007Z,102198.00
2023-01-03T10:46:55.588Z,102197.97
2023-01-03T10:49:27.897Z,102199.31
2023-01-03T10:52:01.080Z,102197.41
2023-01-03T10:54:37.195Z,102190.81
2023-01-03T10:57:08.144Z,102180.78
2023-01-03T10:59:37.246Z,102190.53
2023-01-03T11:02:17.666Z,102181.88
2023-01-03T11:04:45.784Z,102175.38
2023-01-03T11:07:16.992Z,102184.72
2023-01-03T11:09:51.578Z,102180.63
2023-01-03T11:12:27.842Z,102172.88
2023-01-03T11:14:57.572Z,102173.16
2023-01-03T11:17:27.057Z,102171.69
2023-01-03T11:19:56.476Z,102172.41
2023-01-03T11:22:37.970Z,102168.66
2023-01-03T11:25:21.026Z,102162.91
2023-01-03T11:28:16.817Z,102172.34
2023-01-03T11:30:54.252Z,102161.34
2023-01-03T11:33:42.856Z,102155.91
2023-01-03T11:36:26.066Z,102148.31
2023-01-03T11:39:06.434Z,102161.28
2023-01-03T11:42:04.054Z,102151.66
2023-01-03T11:45:04.667Z,102155.75
2023-01-03T11:47:39.610Z,102155.53
2023-01-03T11:50:25.447Z,102154.47
2023-01-03T11:53:01.207Z,102154.47
2023-01-03T11:55:42.053Z,102159.38
2023-01-03T11:58:49.144Z,102162.84
2023-01-03T12:01:37.066Z,102161.50
2023-01-03T12:04:24.790Z,102160.22
2023-01-03T12:07:45.866Z,102153.53
2023-01-03T12:10:03.116Z,102142.97
2023-01-03T12:12:49.798Z,102149.03
2023-01-03T12:15:21.375Z,102139.22
2023-01-03T12:17:57.842Z,102141.41
2023-01-03T12:20:29.495Z,102140.81
2023-01-03T12:23:02.931Z,102132.91
2023-01-03T12:25:31.980Z,102128.44
2023-01-03T12:28:05.107Z,102127.44
2023-01-03T12:30:40.868Z,102124.66
2023-01-03T12:33:21.315Z,102125.19
2023-01-03T12:35:55.891Z,102117.00
2023-01-03T12:38:28.729Z,102127.88
2023-01-03T12:41:02.627Z,102126.97
2023-01-03T12:43:37.181Z,102128.94
2023-01-03T12:46:13.179Z,102114.41
2023-01-03T12:48:54.794Z,102117.38
2023-01-03T12:51:24.627Z,102110.56
2023-01-03T12:54:06.361Z,102113.41
2023-01-03T12:57:00.525Z,102107.47
2023-01-03T12:59:44.921Z,102104.34
2023-01-03T13:02:23.473Z,102101.19
2023-01-03T13:04:57.787Z,102103.44
2023-01-03T13:07:29.386Z,102096.13
2023-01-03T13:10:02.048Z,102101.91
2023-01-03T13:12:34.939Z,102102.59
2023-01-03T13:15:16.230Z,102102.97
2023-01-03T13:17:46.016Z,102094.88
2023-01-03T13:20:33.634Z,102077.47
2023-01-03T13:23:02.675Z,102075.13
2023-01-03T13:25:41.611Z,102081.53
2023-01-03T13:28:31.198Z,102074.47
2023-01-03T13:31:32.341Z,102066.28
2023-01-03T13:34:18.063Z,102061.69
2023-01-03T13:37:16.194Z,102061.69
2023-01-03T13:39:49.053Z,102055.81
2023-01-03T13:42:23.339Z,102060.19
2023-01-03T13:44:52.008Z,102048.19
2023-01-03T13:47:31.886Z,102047.66
2023-01-03T13:49:59.991Z,102043.59
2023-01-03T13:52:56.856Z,102037.22
2023-01-03T13:55:36.388Z,102042.28
2023-01-03T13:58:05.456Z,102043.13
2023-01-03T14:00:33.259Z,102042.09
2023-01-03T14:03:36.849Z,102032.94
2023-01-03T14:06:46.466Z,102039.75
2023-01-03T14:09:52.636Z,102039.97
2023-01-03T14:12:47.153Z,102028.00
2023-01-03T14:15:25.261Z,102015.84
2023-01-03T14:17:57.308Z,102022.53
2023-01-03T14:20:29.903Z,102013.47
2023-01-03T14:23:17.154Z,102010.78
2023-01-03T14:25:50.080Z,102011.44
2023-01-03T14:28:22.572Z,102010.72
2023-01-03T14:31:01.324Z,102010.03
2023-01-03T14:33:36.495Z,102006.88
2023-01-03T14:36:05.789Z,102014.03
2023-01-03T14:38:35.590Z,102000.56
2023-01-03T14:41:03.996Z,102000.25
2023-01-03T14:43:35.281Z,102006.38
2023-01-03T14:46:06.300Z,102010.03
2023-01-03T14:48:34.718Z,102004.38
2023-01-03T14:51:03.577Z,102005.31
2023-01-03T14:53:33.801Z,102004.94
2023-01-03T14:56:02.133Z,101998.69
2023-01-03T14:58:36.837Z,102003.31
2023-01-03T15:01:07.357Z,102001.91
2023-01-03T15:03:39.057Z,101999.09
2023-01-03T15:06:18.936Z,102006.81
2023-01-03T15:08:47.419Z,102011.53
2023-01-03T15:11:16.030Z,102003.56
2023-01-03T15:13:54.075Z,101999.38
2023-01-03T15:16:26.496Z,101987.22
2023-01-03T15:19:03.179Z,101996.38
2023-01-03T15:21:31.785Z,101998.06
2023-01-03T15:23:59.952Z,102001.06
2023-01-03T15:26:38.243Z,101991.34
2023-01-03T15:29:14.267Z,102002.56
2023-01-03T15:31:50.957Z,102002.69
2023-01-03T15:34:21.068Z,102009.56
2023-01-03T15:36:52.773Z,102012.78
2023-01-03T15:39:23.322Z,102010.53
2023-01-03T15:42:42.915Z,102006.75
2023-01-03T15:45:02.970Z,102000.91
2023-01-03T15:47:32.626Z,101996.06
2023-01-03T15:50:04.542Z,102006.16
2023-01-03T15:52:32.302Z,102007.31
2023-01-03T15:55:00.148Z,102006.91
2023-01-03T15:57:31.674Z,102003.44
2023-01-03T16:00:04.347Z,102000.56
2023-01-03T16:02:32.925Z,102004.56
2023-01-03T16:05:00.837Z,102001.81
2023-01-03T16:07:28.587Z,102007.06
2023-01-03T16:09:56.397Z,101997.22
2023-01-03T16:12:33.517Z,102002.31
2023-01-03T16:15:04.197Z,102002.56
2023-01-03T16:17:33.311Z,101990.91
2023-01-03T16:20:02.147Z,101988.72
2023-01-03T16:22:36.354Z,101997.56
2023-01-03T16:25:05.726Z,101990.78
2023-01-03T16:27:33.740Z,101995.56
2023-01-03T16:30:02.892Z,101996.28
2023-01-03T16:32:31.306Z,102001.19
2023-01-03T16:35:02.231Z,101997.78
2023-01-03T16:37:30.212Z,101992.91
2023-01-03T16:39:59.182Z,101997.38
2023-01-03T16:42:28.408Z,101999.63
2023-01-03T16:44:57.031Z,102008.72
2023-01-03T16:47:30.852Z,102002.34
2023-01-03T16:50:01.763Z,101990.19
2023-01-03T16:52:34.498Z,101990.50
2023-01-03T16:55:05.485Z,101993.94
2023-01-03T16:57:33.284Z,101984.72
2023-01-03T17:00:00.992Z,101995.78
2023-01-03T17:02:30.283Z,101989.38
2023-01-03T17:04:58.276Z,101991.69
2023-01-03T17:07:26.166Z,101998.22
2023-01-03T17:09:54.113Z,101991.59
2023-01-03T17:12:24.585Z,101998.84
2023-01-03T17:14:52.951Z,101998.69
2023-01-03T17:17:22.653Z,101998.94
2023-01-03T17:20:07.483Z,101993.59
2023-01-03T17:22:35.501Z,101991.03
2023-01-03T17:25:03.409Z,102004.25
2023-01-03T17:27:33.192Z,101998.81
2023-01-03T17:30:04.687Z,101997.31
2023-01-03T17:32:32.509Z,102003.69
2023-01-03T17:35:03.144Z,102004.84
2023-01-03T17:37:45.399Z,102003.59
2023-01-03T17:40:26.423Z,102010.72
2023-01-03T17:42:59.748Z,102011.88
2023-01-03T17:45:44.860Z,102010.81
2023-01-03T17:48:30.194Z,102001.28
2023-01-03T17:51:01.353Z,102002.19
2023-01-03T17:53:29.321Z,101998.59
2023-01-03T17:55:57.306Z,101994.16
2023-01-03T17:58:32.253Z,102002.53
2023-01-03T18:01:00.132Z,101995.66
2023-01-03T18:03:29.061Z,102003.13
2023-01-03T18:05:57.356Z,101991.53
2023-01-03T18:08:27.198Z,101996.94
2023-01-03T18:10:55.720Z,101994.41
2023-01-03T18:13:26.859Z,101989.50
2023-01-03T18:15:55.972Z,101988.72
2023-01-03T18:18:25.570Z,101986.78
2023-01-03T18:20:53.746Z,101996.78
2023-01-03T18:23:29.032Z,101997.44
2023-01-03T18:25:59.481Z,101989.75
2023-01-03T18:28:28.568Z,101995.31
2023-01-03T18:30:57.263Z,101993.69
2023-01-03T18:33:25.443Z,102007.69
2023-01-03T18:35:54.337Z,102007.28
2023-01-03T18:38:26.454Z,102006.91
2023-01-03T18:41:04.013Z,101999.38
2023-01-03T18:43:32.758Z,101997.03
2023-01-03T18:46:00.646Z,102002.44
2023-01-03T18:48:28.890Z,101980.03
2023-01-03T18:50:59.407Z,101984.25
2023-01-03T18:53:31.020Z,101984.63
2023-01-03T18:56:00.638Z,101985.44
2023-01-03T18:58:32.951Z,101977.72
2023-01-03T19:01:01.336Z,101990.75
2023-01-03T19:03:31.761Z,101983.53
2023-01-03T19:06:00.899Z,101983.72
2023-01-03T19:08:31.849Z,101983.66
2023-01-03T19:11:07.023Z,101986.59
2023-01-03T19:13:49.974Z,101992.03
2023-01-03T19:16:19.906Z,102001.13
2023-01-03T19:18:47.870Z,101991.72
2023-01-03T19:21:16.827Z,101993.31
2023-01-03T19:23:46.049Z,101999.66
2023-01-03T19:26:26.492Z,102007.56
2023-01-03T19:28:58.133Z,102003.78
2023-01-03T19:31:27.644Z,101995.56
2023-01-03T19:33:55.687Z,101994.81
2023-01-03T19:36:24.060Z,101995.66
2023-01-03T19:38:51.820Z,101992.44
2023-01-03T19:41:21.925Z,101982.63
2023-01-03T19:43:50.430Z,101991.91
2023-01-03T19:46:19.385Z,101993.53
2023-01-03T19:48:47.168Z,101985.28
2023-01-03T19:51:14.972Z,101996.50
2023-01-03T19:53:43.128Z,101986.56
2023-01-03T19:56:23.906Z,101985.31
2023-01-03T19:58:54.469Z,101985.22
2023-01-03T20:01:25.819Z,101991.25
2023-01-03T20:03:54.194Z,101984.69
2023-01-03T20:06:22.529Z,101983.16
2023-01-03T20:08:50.201Z,101992.31
2023-01-03T20:11:20.180Z,101995.47
2023-01-03T20:13:50.556Z,102000.78
2023-01-03T20:16:18.898Z,101992.78
2023-01-03T20:18:47.971Z,101986.31
2023-01-03T20:21:22.819Z,101985.63
2023-01-03T20:23:54.441Z,101980.31
2023-01-03T20:26:25.324Z,101980.53
2023-01-03T20:28:55.839Z,101983.22
2023-01-03T20:31:24.194Z,101978.22
2023-01-03T20:33:53.154Z,101975.94
2023-01-03T20:36:24.684Z,101998.19
2023-01-03T20:38:55.590Z,101980.69
2023-01-03T20:41:35.768Z,101986.56
2023-01-03T20:44:07.341Z,101981.97
2023-01-03T20:46:35.268Z,101979.59
2023-01-03T20:49:04.590Z,101973.63
2023-01-03T20:51:32.468Z,101975.31
2023-01-03T20:54:00.219Z,101981.59
2023-01-03T20:56:28.227Z,101976.81
2023-01-03T20:58:55.998Z,101975.56
2023-01-03T21:01:25.280Z,101976.69
2023-01-03T21:03:53.111Z,101986.09
2023-01-03T21:06:23.384Z,101970.06
2023-01-03T21:08:58.322Z,101966.38
2023-01-03T21:11:28.586Z,101975.94
2023-01-03T21:13:57.064Z,101965.03
2023-01-03T21:16:32.381Z,101969.28
2023-01-03T21:19:06.290Z,101970.28
2023-01-03T21:21:34.947Z,101974.66
2023-01-03T21:24:03.199Z,101966.78
2023-01-03T21:26:30.982Z,101970.16
2023-01-03T21:28:59.129Z,101978.44
2023-01-03T21:31:27.567Z,101970.69
2023-01-03T21:33:56.873Z,101967.91
2023-01-03T21:36:27.532Z,101969.28
2023-01-03T21:38:56.261Z,101970.72
2023-01-03T21:41:26.071Z,101965.81
2023-01-03T21:43:56.256Z,101968.59
2023-01-03T21:46:24.849Z,101970.41
2023-01-03T21:48:52.815Z,101970.25
2023-01-03T21:51:33.490Z,101985.47
2023-01-03T21:54:05.702Z,101983.25
2023-01-03T21:56:33.885Z,101983.50
2023-01-03T21:59:01.594Z,101972.78
2023-01-03T22:01:49.515Z,101978.13
2023-01-03T22:04:16.421Z,101987.34
2023-01-03T22:06:45.508Z,101984.00
2023-01-03T22:09:33.338Z,101995.94
2023-01-03T22:12:01.111Z,101987.66
2023-01-03T22:14:28.967Z,101984.38
2023-01-03T22:16:56.720Z,101983.25
2023-01-03T22:19:24.577Z,101984.38
2023-01-03T22:21:53.655Z,101985.03
2023-01-03T22:24:21.384Z,101972.78
2023-01-03T22:26:49.199Z,101965.03
2023-01-03T22:29:17.194Z,101971.13
2023-01-03T22:31:46.322Z,101969.22
2023-01-03T22:34:14.081Z,101970.50
2023-01-03T22:36:41.870Z,101975.09
2023-01-03T22:39:11.152Z,101968.78
2023-01-03T22:41:38.995Z,101972.59
2023-01-03T22:44:06.710Z,101967.47
2023-01-03T22:46:34.458Z,101967.25
2023-01-03T22:49:02.235Z,101968.22
2023-01-03T22:51:29.994Z,101971.88
2023-01-03T22:53:58.542Z,101972.00
2023-01-03T22:56:27.629Z,101965.91
2023-01-03T22:58:55.378Z,101961.97
2023-01-03T23:01:27.727Z,101972.81
2023-01-03T23:03:59.686Z,101966.72
2023-01-03T23:06:29.350Z,101971.94
2023-01-03T23:08:57.557Z,101962.28
2023-01-03T23:11:46.550Z,101969.66
2023-01-03T23:14:16.483Z,101960.81
2023-01-03T23:16:44.819Z,101965.69
2023-01-03T23:19:14.093Z,101969.13
2023-01-03T23:21:42.011Z,101974.09
2023-01-03T23:24:13.673Z,101963.50
2023-01-03T23:26:43.049Z,101963.88
2023-01-03T23:29:12.149Z,101962.00
2023-01-03T23:31:39.876Z,101960.75
2023-01-03T23:34:08.419Z,101957.34
2023-01-03T23:36:36.238Z,101955.53
2023-01-03T23:39:05.128Z,101952.78
2023-01-03T23:41:34.403Z,101943.38
2023-01-03T23:44:03.531Z,101937.22
2023-01-03T23:46:31.577Z,101956.25
2023-01-03T23:48:59.708Z,101948.88
2023-01-03T23:51:28.251Z,101953.16
2023-01-03T23:53:56.304Z,101950.44
2023-01-03T23:56:25.474Z,101946.41
2023-01-03T23:58:53.802Z,101952.63
